Time;durP1;ratioP1;P1;durP2;ratioP2;P2;SDS_P1;SDS_P2;PMS_P1;PMS_P2;Temp;Humidity;BMP_temperature;BMP_pressure;BME280_temperature;BME280_humidity;BME280_pressure;Samples;Min_cycle;Max_cycle;Signal;HPM_P1;HPM_P2
2021/12/30 00:00:23;;;;;;;49.53;20.75;;;;;;;;;;5010408;28;20457;-43
2021/12/30 00:02:49;;;;;;;47.17;20.85;;;;;;;;;;5011103;28;20160;-43
2021/12/30 00:05:15;;;;;;;52.17;19.70;;;;;;;;;;5010675;28;20069;-43
2021/12/30 00:07:42;;;;;;;51.13;20.48;;;;;;;;;;5010768;28;20127;-43
2021/12/30 00:10:08;;;;;;;59.67;21.02;;;;;;;;;;5010507;28;20040;-44
2021/12/30 00:12:34;;;;;;;54.75;22.05;;;;;;;;;;5010903;28;20037;-43
2021/12/30 00:15:00;;;;;;;56.83;22.17;;;;;;;;;;5010540;28;20500;-44
2021/12/30 00:17:26;;;;;;;65.53;24.35;;;;;;;;;;5010031;28;20083;-44
2021/12/30 00:19:52;;;;;;;75.95;26.15;;;;;;;;;;5010548;28;20104;-43
2021/12/30 00:22:18;;;;;;;85.07;27.45;;;;;;;;;;5010816;28;20025;-42
2021/12/30 00:24:44;;;;;;;76.82;28.20;;;;;;;;;;5011020;28;20029;-43
2021/12/30 00:27:10;;;;;;;78.57;27.00;;;;;;;;;;5010702;28;20423;-43
2021/12/30 00:29:36;;;;;;;79.68;28.23;;;;;;;;;;5010295;28;20377;-45
2021/12/30 00:32:03;;;;;;;88.22;28.45;;;;;;;;;;5010861;28;20028;-45
2021/12/30 00:34:29;;;;;;;87.95;29.23;;;;;;;;;;5010388;28;20026;-45
2021/12/30 00:36:55;;;;;;;86.00;29.48;;;;;;;;;;5010440;28;20358;-44
2021/12/30 00:39:21;;;;;;;100.85;31.77;;;;;;;;;;5010520;28;20437;-43
2021/12/30 00:41:47;;;;;;;104.88;34.13;;;;;;;;;;5010481;28;20066;-43
2021/12/30 00:44:14;;;;;;;111.78;34.83;;;;;;;;;;5010162;28;20053;-45
2021/12/30 00:46:40;;;;;;;107.97;34.05;;;;;;;;;;5010506;28;20495;-44
2021/12/30 00:49:06;;;;;;;117.13;38.13;;;;;;;;;;5010276;28;20029;-45
2021/12/30 00:51:32;;;;;;;127.32;39.42;;;;;;;;;;5010264;28;20072;-45
2021/12/30 00:53:58;;;;;;;126.35;39.72;;;;;;;;;;5010335;28;20100;-45
2021/12/30 00:56:24;;;;;;;121.72;38.88;;;;;;;;;;4994337;28;20501;-45
2021/12/30 00:58:52;;;;;;;121.78;38.83;;;;;;;;;;5014009;28;20037;-44
2021/12/30 01:01:18;;;;;;;121.35;39.85;;;;;;;;;;5014428;28;20018;-45
2021/12/30 01:03:44;;;;;;;140.30;41.45;;;;;;;;;;5014289;28;20385;-44
2021/12/30 01:06:10;;;;;;;116.22;40.22;;;;;;;;;;5014052;28;20558;-45
2021/12/30 01:08:36;;;;;;;129.30;41.03;;;;;;;;;;5013489;28;20061;-44
2021/12/30 01:11:06;;;;;;;137.82;42.38;;;;;;;;;;5013667;28;20026;-45
2021/12/30 01:13:37;;;;;;;149.68;43.50;;;;;;;;;;5013800;28;20511;-45
2021/12/30 01:16:05;;;;;;;145.15;43.78;;;;;;;;;;5014149;28;20091;-45
2021/12/30 01:18:55;;;;;;;136.05;40.53;;;;;;;;;;5013869;28;20504;-45
2021/12/30 01:21:21;;;;;;;132.25;43.15;;;;;;;;;;5013821;28;20113;-45
2021/12/30 01:23:47;;;;;;;142.68;42.47;;;;;;;;;;5014095;28;20368;-44
2021/12/30 01:26:14;;;;;;;152.45;43.03;;;;;;;;;;5012968;28;20574;-45
2021/12/30 01:28:40;;;;;;;161.15;43.03;;;;;;;;;;5013961;28;20074;-45
2021/12/30 01:31:07;;;;;;;157.60;46.85;;;;;;;;;;5013419;28;20034;-45
2021/12/30 01:33:33;;;;;;;148.35;43.33;;;;;;;;;;5013556;28;20072;-44
2021/12/30 01:35:59;;;;;;;145.63;41.85;;;;;;;;;;5012988;28;20037;-44
2021/12/30 01:38:26;;;;;;;133.82;42.33;;;;;;;;;;5013215;28;20025;-45
2021/12/30 01:40:54;;;;;;;143.60;42.88;;;;;;;;;;5013559;28;20619;-45
2021/12/30 01:43:20;;;;;;;146.50;43.33;;;;;;;;;;5041011;23;20128;-39
2021/12/30 01:45:46;;;;;;;151.13;45.38;;;;;;;;;;5033251;28;20029;-43
2021/12/30 01:48:13;;;;;;;129.68;42.70;;;;;;;;;;5033785;28;20034;-41
2021/12/30 01:50:39;;;;;;;138.35;42.75;;;;;;;;;;5032815;28;20042;-41
2021/12/30 01:53:06;;;;;;;138.60;41.83;;;;;;;;;;5028576;28;20132;-40
2021/12/30 01:55:33;;;;;;;128.45;42.40;;;;;;;;;;5019425;28;20080;-39
2021/12/30 01:58:00;;;;;;;130.48;40.20;;;;;;;;;;5041454;28;20036;-42
2021/12/30 02:00:26;;;;;;;127.68;39.15;;;;;;;;;;5034536;28;20162;-39
2021/12/30 02:02:52;;;;;;;138.48;41.88;;;;;;;;;;5032977;28;20057;-39
2021/12/30 02:05:19;;;;;;;109.80;37.05;;;;;;;;;;5033665;28;20083;-39
2021/12/30 02:07:45;;;;;;;121.75;37.50;;;;;;;;;;5039896;28;20121;-40
2021/12/30 02:10:13;;;;;;;111.55;35.38;;;;;;;;;;5052489;28;20025;-40
2021/12/30 02:12:39;;;;;;;115.50;37.17;;;;;;;;;;5046640;28;20071;-39
2021/12/30 02:15:07;;;;;;;92.50;31.33;;;;;;;;;;5033285;28;20075;-40
2021/12/30 02:17:33;;;;;;;112.15;35.38;;;;;;;;;;5032389;28;20109;-42
2021/12/30 02:19:59;;;;;;;112.22;33.53;;;;;;;;;;5032824;28;20029;-38
2021/12/30 02:22:26;;;;;;;104.18;34.60;;;;;;;;;;5033279;28;20065;-40
2021/12/30 02:24:52;;;;;;;92.80;31.27;;;;;;;;;;5032569;28;20033;-40
2021/12/30 02:27:18;;;;;;;103.20;28.88;;;;;;;;;;5032445;28;20072;-41
2021/12/30 02:29:44;;;;;;;90.53;27.48;;;;;;;;;;5039775;28;20057;-39
2021/12/30 02:32:10;;;;;;;89.70;28.80;;;;;;;;;;5039025;28;20036;-40
2021/12/30 02:34:38;;;;;;;94.22;27.90;;;;;;;;;;5032519;28;20063;-41
2021/12/30 02:37:04;;;;;;;81.40;25.55;;;;;;;;;;5032708;28;20029;-40
2021/12/30 02:39:31;;;;;;;76.63;25.27;;;;;;;;;;5031722;28;20053;-39
2021/12/30 02:41:57;;;;;;;86.95;24.88;;;;;;;;;;5032441;28;20017;-39
2021/12/30 02:44:23;;;;;;;71.18;22.17;;;;;;;;;;5032703;28;20029;-39
2021/12/30 02:46:53;;;;;;;90.18;23.90;;;;;;;;;;5036931;28;20068;-40
2021/12/30 02:49:20;;;;;;;78.15;21.98;;;;;;;;;;5032455;28;20079;-41
2021/12/30 02:51:46;;;;;;;73.05;22.10;;;;;;;;;;5032453;28;20025;-40
2021/12/30 02:54:12;;;;;;;81.10;26.30;;;;;;;;;;5030112;28;20021;-40
2021/12/30 02:56:39;;;;;;;73.25;23.48;;;;;;;;;;5037292;28;20064;-40
2021/12/30 02:59:05;;;;;;;68.53;21.45;;;;;;;;;;5035608;28;20021;-39
2021/12/30 03:01:32;;;;;;;74.35;23.20;;;;;;;;;;5027899;28;20104;-40
2021/12/30 03:04:00;;;;;;;73.53;24.15;;;;;;;;;;5031749;28;20075;-39
2021/12/30 03:06:26;;;;;;;73.70;19.38;;;;;;;;;;5032579;28;20028;-40
2021/12/30 03:08:53;;;;;;;66.25;20.27;;;;;;;;;;5031655;28;20178;-39
2021/12/30 03:11:19;;;;;;;72.60;21.30;;;;;;;;;;5031685;28;20071;-39
2021/12/30 03:13:46;;;;;;;81.13;21.67;;;;;;;;;;5031396;28;20025;-38
2021/12/30 03:16:17;;;;;;;65.53;21.55;;;;;;;;;;5032357;28;20163;-39
2021/12/30 03:18:44;;;;;;;70.65;22.67;;;;;;;;;;5031490;28;20515;-41
2021/12/30 03:21:11;;;;;;;53.97;20.95;;;;;;;;;;5047587;28;20074;-42
2021/12/30 03:23:38;;;;;;;68.95;20.33;;;;;;;;;;5044254;28;20032;-41
2021/12/30 03:26:04;;;;;;;57.90;20.42;;;;;;;;;;5036534;28;20025;-41
2021/12/30 03:28:31;;;;;;;54.92;19.20;;;;;;;;;;5032196;28;20026;-40
2021/12/30 03:30:58;;;;;;;52.75;18.27;;;;;;;;;;5031675;28;20056;-39
2021/12/30 03:33:25;;;;;;;60.80;17.98;;;;;;;;;;5031909;28;20029;-41
2021/12/30 03:35:51;;;;;;;70.03;19.05;;;;;;;;;;5031471;28;20263;-39
2021/12/30 03:38:17;;;;;;;56.50;19.05;;;;;;;;;;5043248;28;20033;-41
2021/12/30 03:40:43;;;;;;;61.80;20.73;;;;;;;;;;5031258;28;20029;-43
2021/12/30 03:43:09;;;;;;;71.85;20.13;;;;;;;;;;5031293;28;20044;-41
2021/12/30 03:45:35;;;;;;;69.15;19.50;;;;;;;;;;5031684;28;20057;-42
2021/12/30 03:48:01;;;;;;;74.88;21.20;;;;;;;;;;5031658;28;20037;-42
2021/12/30 03:50:29;;;;;;;59.85;21.52;;;;;;;;;;5030775;28;20021;-42
2021/12/30 03:52:57;;;;;;;69.00;21.40;;;;;;;;;;5039719;28;20651;-38
2021/12/30 03:55:24;;;;;;;60.03;21.20;;;;;;;;;;5035312;28;20061;-38
2021/12/30 03:57:51;;;;;;;66.65;20.65;;;;;;;;;;5031750;28;20421;-43
2021/12/30 04:00:17;;;;;;;63.55;18.45;;;;;;;;;;5031223;28;20623;-39
2021/12/30 04:02:44;;;;;;;53.90;17.88;;;;;;;;;;5031381;28;20030;-40
2021/12/30 04:05:10;;;;;;;58.70;19.67;;;;;;;;;;5031169;28;20446;-39
2021/12/30 04:07:36;;;;;;;89.00;20.20;;;;;;;;;;5030715;28;20029;-39
2021/12/30 04:10:03;;;;;;;48.65;19.33;;;;;;;;;;5030775;28;20057;-40
2021/12/30 04:12:30;;;;;;;52.85;18.52;;;;;;;;;;5031108;28;20021;-39
2021/12/30 04:14:56;;;;;;;66.63;17.73;;;;;;;;;;5031379;28;20030;-41
2021/12/30 04:17:22;;;;;;;62.10;17.55;;;;;;;;;;5031108;28;20025;-40
2021/12/30 04:19:49;;;;;;;67.68;18.83;;;;;;;;;;5031244;28;20100;-39
2021/12/30 04:22:18;;;;;;;56.03;16.30;;;;;;;;;;5038842;28;20057;-40
2021/12/30 04:24:44;;;;;;;70.85;19.10;;;;;;;;;;5041784;28;20017;-39
2021/12/30 04:27:10;;;;;;;68.45;18.08;;;;;;;;;;5042185;28;20095;-40
2021/12/30 04:29:36;;;;;;;74.28;18.92;;;;;;;;;;5045089;28;20057;-40
2021/12/30 04:32:02;;;;;;;62.63;19.88;;;;;;;;;;5042735;28;20045;-39
2021/12/30 04:34:28;;;;;;;76.20;18.67;;;;;;;;;;5036759;28;20424;-42
2021/12/30 04:36:58;;;;;;;71.90;17.73;;;;;;;;;;5034806;28;20060;-40
2021/12/30 04:39:24;;;;;;;66.50;18.45;;;;;;;;;;5034783;28;20036;-42
2021/12/30 04:41:50;;;;;;;83.32;18.58;;;;;;;;;;5034896;28;20060;-40
2021/12/30 04:44:16;;;;;;;62.08;16.38;;;;;;;;;;5034738;28;20072;-41
2021/12/30 04:46:42;;;;;;;88.82;20.63;;;;;;;;;;5034638;28;20029;-41
2021/12/30 04:49:08;;;;;;;74.38;21.63;;;;;;;;;;5035003;28;20072;-38
2021/12/30 04:51:34;;;;;;;84.22;21.50;;;;;;;;;;5042671;28;20025;-39
2021/12/30 04:54:00;;;;;;;88.68;23.77;;;;;;;;;;5034983;28;20376;-38
2021/12/30 04:56:26;;;;;;;98.20;28.30;;;;;;;;;;5034363;28;20091;-39
2021/12/30 04:58:52;;;;;;;98.97;26.40;;;;;;;;;;5034388;28;20100;-39
2021/12/30 05:01:19;;;;;;;104.43;30.90;;;;;;;;;;5033985;28;20057;-38
2021/12/30 05:03:45;;;;;;;95.25;29.33;;;;;;;;;;5033953;28;20057;-39
2021/12/30 05:06:11;;;;;;;98.03;28.98;;;;;;;;;;5034476;28;20072;-40
2021/12/30 05:08:37;;;;;;;103.35;28.83;;;;;;;;;;5034185;28;20033;-39
2021/12/30 05:11:04;;;;;;;106.75;29.65;;;;;;;;;;5034119;28;20488;-41
2021/12/30 05:13:31;;;;;;;114.80;29.67;;;;;;;;;;5033859;28;20119;-39
2021/12/30 05:15:57;;;;;;;121.25;30.90;;;;;;;;;;5036768;28;20060;-41
2021/12/30 05:18:31;;;;;;;125.78;29.92;;;;;;;;;;5034181;28;20036;-40
2021/12/30 05:21:01;;;;;;;105.53;29.95;;;;;;;;;;5038481;28;20045;-41
2021/12/30 05:23:27;;;;;;;104.75;30.02;;;;;;;;;;5033838;28;20026;-41
2021/12/30 05:25:53;;;;;;;106.85;30.15;;;;;;;;;;5034305;28;20026;-40
2021/12/30 05:28:19;;;;;;;113.72;28.92;;;;;;;;;;5033712;28;20057;-39
2021/12/30 05:30:45;;;;;;;98.70;28.52;;;;;;;;;;5033411;28;20475;-39
2021/12/30 05:33:11;;;;;;;97.97;27.13;;;;;;;;;;5033940;28;20049;-39
2021/12/30 05:35:37;;;;;;;119.65;26.92;;;;;;;;;;5033384;28;20492;-39
2021/12/30 05:38:04;;;;;;;108.35;27.38;;;;;;;;;;5033746;28;20040;-41
2021/12/30 05:40:31;;;;;;;107.10;26.65;;;;;;;;;;5015865;28;20033;-39
2021/12/30 05:42:57;;;;;;;100.35;23.80;;;;;;;;;;5033339;28;20022;-39
2021/12/30 05:45:23;;;;;;;108.65;24.73;;;;;;;;;;5036538;28;20112;-40
2021/12/30 05:47:50;;;;;;;119.00;26.02;;;;;;;;;;5042114;28;20033;-39
2021/12/30 05:50:17;;;;;;;84.68;23.52;;;;;;;;;;5033050;28;20631;-39
2021/12/30 05:52:45;;;;;;;96.65;25.10;;;;;;;;;;5033030;28;20065;-39
2021/12/30 05:55:11;;;;;;;81.35;24.08;;;;;;;;;;5033531;28;20033;-41
2021/12/30 05:57:38;;;;;;;97.80;23.20;;;;;;;;;;5032896;28;20032;-40
2021/12/30 06:00:05;;;;;;;106.22;24.40;;;;;;;;;;5032894;28;20025;-39
2021/12/30 06:02:31;;;;;;;93.90;24.13;;;;;;;;;;5033459;28;20025;-40
2021/12/30 06:04:57;;;;;;;92.65;23.65;;;;;;;;;;5033015;28;20025;-40
2021/12/30 06:07:23;;;;;;;115.35;25.58;;;;;;;;;;5044391;28;20017;-39
2021/12/30 06:09:49;;;;;;;103.35;25.45;;;;;;;;;;5032979;28;20033;-39
2021/12/30 06:12:16;;;;;;;109.70;26.80;;;;;;;;;;5031380;28;20108;-40
2021/12/30 06:14:42;;;;;;;95.43;23.10;;;;;;;;;;5037005;28;20053;-40
2021/12/30 06:17:10;;;;;;;86.82;25.55;;;;;;;;;;5036903;28;20037;-39
2021/12/30 06:19:36;;;;;;;91.78;26.88;;;;;;;;;;5032229;28;20052;-39
2021/12/30 06:22:03;;;;;;;99.22;23.38;;;;;;;;;;5033438;28;20021;-40
2021/12/30 06:24:29;;;;;;;98.45;24.25;;;;;;;;;;5032765;28;20029;-39
2021/12/30 06:26:55;;;;;;;112.53;26.38;;;;;;;;;;5032474;28;20029;-41
2021/12/30 06:29:21;;;;;;;105.13;24.58;;;;;;;;;;5032498;28;20033;-39
2021/12/30 06:31:47;;;;;;;99.18;23.83;;;;;;;;;;5032637;28;20477;-40
2021/12/30 06:34:13;;;;;;;87.28;26.13;;;;;;;;;;5032496;28;20029;-39
2021/12/30 06:36:39;;;;;;;97.85;26.15;;;;;;;;;;5033092;28;20034;-42
2021/12/30 06:39:05;;;;;;;101.65;27.65;;;;;;;;;;5032147;28;20031;-39
2021/12/30 06:41:31;;;;;;;102.47;25.75;;;;;;;;;;5037267;28;20479;-40
2021/12/30 06:43:57;;;;;;;90.28;26.50;;;;;;;;;;5041509;28;20025;-39
2021/12/30 06:46:24;;;;;;;103.55;27.83;;;;;;;;;;5032381;28;20032;-41
2021/12/30 06:48:50;;;;;;;96.35;27.45;;;;;;;;;;5032180;28;20039;-39
2021/12/30 06:51:22;;;;;;;86.60;24.10;;;;;;;;;;5032547;28;20025;-40
2021/12/30 06:53:48;;;;;;;95.07;26.88;;;;;;;;;;5030567;28;20144;-39
2021/12/30 06:56:14;;;;;;;100.68;25.48;;;;;;;;;;5040394;28;20168;-38
2021/12/30 06:58:40;;;;;;;98.40;24.65;;;;;;;;;;5030918;28;20021;-39
2021/12/30 07:01:06;;;;;;;93.70;24.80;;;;;;;;;;5031631;28;20105;-39
2021/12/30 07:03:32;;;;;;;101.15;24.10;;;;;;;;;;5032183;28;20524;-38
2021/12/30 07:05:58;;;;;;;89.97;24.17;;;;;;;;;;5040640;28;20033;-39
2021/12/30 07:08:24;;;;;;;79.25;23.92;;;;;;;;;;5044732;28;20026;-39
2021/12/30 07:10:51;;;;;;;89.85;23.60;;;;;;;;;;5031393;28;20083;-39
2021/12/30 07:13:17;;;;;;;74.05;23.58;;;;;;;;;;5031720;28;20522;-39
2021/12/30 07:15:43;;;;;;;97.50;22.60;;;;;;;;;;5031986;28;20127;-39
2021/12/30 07:18:09;;;;;;;81.63;21.23;;;;;;;;;;5031693;28;20095;-39
2021/12/30 07:20:35;;;;;;;82.68;21.92;;;;;;;;;;5031155;28;20077;-40
2021/12/30 07:23:01;;;;;;;86.47;23.35;;;;;;;;;;5035149;28;20022;-39
2021/12/30 07:25:27;;;;;;;91.78;22.48;;;;;;;;;;5031968;28;20452;-41
2021/12/30 07:27:54;;;;;;;84.68;23.55;;;;;;;;;;5031908;28;20063;-42
2021/12/30 07:30:21;;;;;;;94.55;22.08;;;;;;;;;;5031201;28;20030;-39
2021/12/30 07:32:48;;;;;;;88.05;23.10;;;;;;;;;;5034906;28;20047;-41
2021/12/30 07:35:15;;;;;;;84.80;24.20;;;;;;;;;;5034670;28;20025;-41
2021/12/30 07:37:41;;;;;;;84.28;21.63;;;;;;;;;;5030563;28;20503;-40
2021/12/30 07:40:07;;;;;;;79.00;25.20;;;;;;;;;;5030270;28;20125;-39
2021/12/30 07:42:33;;;;;;;99.28;20.92;;;;;;;;;;5030935;28;20025;-39
2021/12/30 07:45:00;;;;;;;76.15;23.77;;;;;;;;;;5044413;22;20049;-35
2021/12/30 07:47:26;;;;;;;84.40;24.05;;;;;;;;;;5031411;28;20065;-36
2021/12/30 07:49:52;;;;;;;87.38;21.90;;;;;;;;;;5030274;28;20060;-36
2021/12/30 07:52:18;;;;;;;71.70;23.55;;;;;;;;;;5031010;28;20496;-35
2021/12/30 07:54:44;;;;;;;92.75;23.10;;;;;;;;;;5019427;28;20627;-35
2021/12/30 07:57:11;;;;;;;88.63;21.60;;;;;;;;;;5016628;28;20030;-35
2021/12/30 07:59:37;;;;;;;85.70;23.73;;;;;;;;;;5021733;28;20025;-35
2021/12/30 08:02:03;;;;;;;89.50;22.55;;;;;;;;;;5030080;28;20029;-35
2021/12/30 08:04:29;;;;;;;94.70;23.95;;;;;;;;;;5028254;28;20036;-35
2021/12/30 08:06:56;;;;;;;107.55;23.88;;;;;;;;;;5014160;28;20030;-35
2021/12/30 08:09:22;;;;;;;65.03;21.65;;;;;;;;;;5026138;28;20068;-36
2021/12/30 08:11:48;;;;;;;102.95;22.40;;;;;;;;;;5013513;28;20033;-35
2021/12/30 08:14:14;;;;;;;94.85;24.75;;;;;;;;;;5023790;28;20033;-36
2021/12/30 08:16:40;;;;;;;89.43;22.88;;;;;;;;;;5022376;28;20069;-37
2021/12/30 08:19:06;;;;;;;94.05;24.08;;;;;;;;;;5023076;28;20052;-36
2021/12/30 08:21:32;;;;;;;78.93;22.48;;;;;;;;;;5027410;28;20120;-36
2021/12/30 08:23:58;;;;;;;86.13;23.20;;;;;;;;;;5022135;28;20500;-35
2021/12/30 08:26:25;;;;;;;93.05;23.92;;;;;;;;;;5027177;28;20061;-35
2021/12/30 08:28:51;;;;;;;88.25;27.67;;;;;;;;;;5016709;28;20175;-36
2021/12/30 08:31:17;;;;;;;87.18;22.15;;;;;;;;;;5018641;28;20860;-37
2021/12/30 08:33:43;;;;;;;73.45;23.55;;;;;;;;;;5025257;28;20038;-36
2021/12/30 08:36:09;;;;;;;83.43;23.10;;;;;;;;;;5022584;28;20025;-36
2021/12/30 08:38:35;;;;;;;91.72;24.17;;;;;;;;;;5037482;28;20390;-35
2021/12/30 08:41:01;;;;;;;92.05;25.13;;;;;;;;;;5022763;28;20095;-36
2021/12/30 08:43:27;;;;;;;108.97;23.88;;;;;;;;;;5013362;28;20025;-36
2021/12/30 08:45:53;;;;;;;90.20;23.35;;;;;;;;;;5020589;28;20097;-36
2021/12/30 08:48:20;;;;;;;111.70;26.90;;;;;;;;;;5026994;28;20117;-36
2021/12/30 08:50:46;;;;;;;94.28;24.27;;;;;;;;;;5012640;28;20484;-37
2021/12/30 08:53:13;;;;;;;102.13;25.42;;;;;;;;;;5017535;28;20116;-36
2021/12/30 08:55:39;;;;;;;120.35;26.90;;;;;;;;;;5028764;28;20025;-35
2021/12/30 08:58:05;;;;;;;99.20;25.88;;;;;;;;;;5019645;28;20110;-36
2021/12/30 09:00:36;;;;;;;93.07;25.13;;;;;;;;;;5024125;28;20495;-35
2021/12/30 09:03:04;;;;;;;124.40;23.55;;;;;;;;;;5026376;28;20034;-35
2021/12/30 09:05:31;;;;;;;105.30;23.67;;;;;;;;;;5029835;28;20503;-36
2021/12/30 09:07:57;;;;;;;108.13;24.83;;;;;;;;;;5029241;28;20068;-36
2021/12/30 09:10:23;;;;;;;109.25;24.88;;;;;;;;;;5028595;28;20026;-35
2021/12/30 09:12:50;;;;;;;84.90;24.95;;;;;;;;;;5020937;28;20029;-36
2021/12/30 09:15:17;;;;;;;89.05;23.67;;;;;;;;;;5016128;28;20061;-36
2021/12/30 09:17:45;;;;;;;91.78;23.88;;;;;;;;;;5030443;28;20045;-36
2021/12/30 09:20:12;;;;;;;96.43;23.83;;;;;;;;;;5022232;28;20022;-35
2021/12/30 09:22:38;;;;;;;75.00;22.05;;;;;;;;;;5019585;28;20044;-37
2021/12/30 09:25:07;;;;;;;87.88;22.88;;;;;;;;;;5028860;28;20022;-35
2021/12/30 09:27:33;;;;;;;102.30;23.88;;;;;;;;;;5023374;28;20018;-36
2021/12/30 09:30:00;;;;;;;72.53;22.52;;;;;;;;;;5013900;28;20380;-36
2021/12/30 09:32:26;;;;;;;92.55;22.10;;;;;;;;;;5017263;28;20022;-36
2021/12/30 09:34:52;;;;;;;78.43;21.05;;;;;;;;;;5020078;28;20033;-36
2021/12/30 09:37:18;;;;;;;78.43;22.50;;;;;;;;;;5025341;28;20038;-36
2021/12/30 09:39:44;;;;;;;78.05;21.70;;;;;;;;;;5015968;28;20029;-38
2021/12/30 09:42:13;;;;;;;93.00;22.15;;;;;;;;;;5024495;28;20030;-37
2021/12/30 09:44:39;;;;;;;62.63;21.15;;;;;;;;;;5032671;28;20400;-37
2021/12/30 09:47:05;;;;;;;55.53;19.40;;;;;;;;;;5019788;28;20029;-37
2021/12/30 09:49:31;;;;;;;66.05;19.05;;;;;;;;;;5020293;28;20033;-36
2021/12/30 09:51:58;;;;;;;67.07;21.55;;;;;;;;;;5028552;28;20040;-36
2021/12/30 09:54:24;;;;;;;69.18;20.95;;;;;;;;;;5027547;28;20033;-36
2021/12/30 09:56:51;;;;;;;63.47;19.45;;;;;;;;;;5027235;28;20032;-36
2021/12/30 09:59:17;;;;;;;48.95;18.00;;;;;;;;;;5019183;28;20045;-35
2021/12/30 10:01:43;;;;;;;51.80;18.30;;;;;;;;;;5010917;28;20025;-38
2021/12/30 10:04:10;;;;;;;48.00;17.45;;;;;;;;;;5014830;28;20507;-36
2021/12/30 10:06:41;;;;;;;54.05;17.15;;;;;;;;;;5019718;28;20061;-36
2021/12/30 10:09:12;;;;;;;55.70;19.38;;;;;;;;;;5026807;28;20040;-36
2021/12/30 10:11:45;;;;;;;42.90;17.45;;;;;;;;;;5029034;28;20075;-37
2021/12/30 10:14:11;;;;;;;46.50;19.23;;;;;;;;;;5029004;28;20026;-36
2021/12/30 10:16:37;;;;;;;57.60;17.80;;;;;;;;;;5029315;28;20431;-36
2021/12/30 10:19:06;;;;;;;44.88;16.65;;;;;;;;;;5012914;28;20057;-36
2021/12/30 10:21:39;;;;;;;52.67;16.80;;;;;;;;;;5018538;28;20068;-36
2021/12/30 10:24:07;;;;;;;41.13;16.52;;;;;;;;;;5012964;28;20034;-37
2021/12/30 10:26:48;;;;;;;48.35;16.88;;;;;;;;;;5013303;28;20041;-38
2021/12/30 10:29:14;;;;;;;45.55;15.50;;;;;;;;;;5026662;28;20033;-37
2021/12/30 10:31:42;;;;;;;39.78;15.07;;;;;;;;;;5022342;28;20033;-37
2021/12/30 10:34:10;;;;;;;41.25;15.18;;;;;;;;;;5020956;28;20082;-37
2021/12/30 10:36:41;;;;;;;35.85;13.88;;;;;;;;;;5031920;28;20079;-37
2021/12/30 10:39:18;;;;;;;34.65;12.45;;;;;;;;;;5025834;28;20022;-38
2021/12/30 10:41:45;;;;;;;28.80;13.32;;;;;;;;;;5023502;28;20021;-40
2021/12/30 10:44:11;;;;;;;27.60;11.50;;;;;;;;;;5027547;28;20061;-38
2021/12/30 10:46:37;;;;;;;36.08;12.30;;;;;;;;;;5025397;28;20329;-38
2021/12/30 10:49:08;;;;;;;23.83;10.55;;;;;;;;;;5013619;28;20061;-39
2021/12/30 10:51:51;;;;;;;26.35;11.77;;;;;;;;;;5023951;28;20036;-39
2021/12/30 10:54:22;;;;;;;28.92;10.90;;;;;;;;;;5021608;28;20037;-38
2021/12/30 10:56:54;;;;;;;23.98;10.13;;;;;;;;;;5020030;28;20120;-38
2021/12/30 10:59:32;;;;;;;26.90;10.60;;;;;;;;;;5016422;28;20057;-39
2021/12/30 11:02:15;;;;;;;24.52;10.50;;;;;;;;;;5026290;28;20038;-37
2021/12/30 11:04:56;;;;;;;20.38;8.70;;;;;;;;;;5023058;28;20064;-39
2021/12/30 11:07:29;;;;;;;32.95;10.98;;;;;;;;;;5028478;28;20037;-38
2021/12/30 11:09:57;;;;;;;20.48;9.07;;;;;;;;;;4999176;28;20037;-38
2021/12/30 11:12:24;;;;;;;22.05;8.90;;;;;;;;;;5011704;28;20045;-38
2021/12/30 11:14:50;;;;;;;20.70;9.80;;;;;;;;;;5016362;28;20029;-38
2021/12/30 11:17:21;;;;;;;19.20;8.35;;;;;;;;;;5026103;28;20068;-37
2021/12/30 11:19:48;;;;;;;23.73;10.00;;;;;;;;;;5019128;28;20022;-37
2021/12/30 11:22:16;;;;;;;15.85;7.53;;;;;;;;;;4997523;28;20121;-37
2021/12/30 11:24:43;;;;;;;17.55;7.15;;;;;;;;;;5029900;28;21269;-39
2021/12/30 11:27:10;;;;;;;17.55;7.85;;;;;;;;;;5019989;28;20037;-38
2021/12/30 11:29:38;;;;;;;15.40;6.80;;;;;;;;;;5032294;28;20320;-38
2021/12/30 11:32:05;;;;;;;14.82;6.88;;;;;;;;;;5024646;28;20480;-38
2021/12/30 11:34:32;;;;;;;17.80;6.65;;;;;;;;;;5011908;28;20088;-37
2021/12/30 11:36:58;;;;;;;13.50;6.60;;;;;;;;;;5021785;28;20033;-38
2021/12/30 11:39:25;;;;;;;12.00;5.57;;;;;;;;;;5033173;28;20502;-40
2021/12/30 11:42:06;;;;;;;9.75;5.10;;;;;;;;;;5008935;28;20455;-39
2021/12/30 11:44:41;;;;;;;8.40;5.13;;;;;;;;;;5025363;28;20025;-38
2021/12/30 11:47:08;;;;;;;7.95;4.13;;;;;;;;;;5026011;28;20385;-38
2021/12/30 11:49:52;;;;;;;9.15;4.38;;;;;;;;;;5026602;28;20538;-39
2021/12/30 11:52:36;;;;;;;12.85;4.18;;;;;;;;;;5020177;28;20408;-39
2021/12/30 11:55:02;;;;;;;5.45;3.42;;;;;;;;;;5027305;28;20044;-38
2021/12/30 11:57:32;;;;;;;6.63;3.58;;;;;;;;;;5012689;28;20405;-39
2021/12/30 11:59:59;;;;;;;6.55;3.55;;;;;;;;;;5028986;28;20049;-37
2021/12/30 12:02:35;;;;;;;5.50;3.20;;;;;;;;;;5029328;28;20060;-37
2021/12/30 12:05:20;;;;;;;6.85;4.05;;;;;;;;;;5019356;28;20022;-37
2021/12/30 12:08:05;;;;;;;5.72;3.42;;;;;;;;;;5021826;28;20044;-37
2021/12/30 12:10:31;;;;;;;7.05;3.20;;;;;;;;;;5017657;28;20053;-37
2021/12/30 12:12:57;;;;;;;5.97;3.45;;;;;;;;;;5020807;28;20061;-37
2021/12/30 12:15:23;;;;;;;8.00;2.88;;;;;;;;;;5023623;28;20124;-38
2021/12/30 12:17:49;;;;;;;4.47;3.10;;;;;;;;;;5026265;28;20060;-37
2021/12/30 12:20:30;;;;;;;6.80;3.40;;;;;;;;;;5026109;28;20452;-38
2021/12/30 12:22:56;;;;;;;5.55;3.35;;;;;;;;;;5017533;28;20026;-37
2021/12/30 12:25:27;;;;;;;5.63;3.05;;;;;;;;;;5016899;28;20041;-37
2021/12/30 12:27:54;;;;;;;5.80;3.40;;;;;;;;;;5025920;28;20080;-36
2021/12/30 12:30:25;;;;;;;5.40;3.38;;;;;;;;;;5021138;28;20413;-38
2021/12/30 12:32:52;;;;;;;6.68;3.97;;;;;;;;;;5024995;28;20028;-37
2021/12/30 12:35:18;;;;;;;4.93;3.53;;;;;;;;;;5020139;28;20028;-38
2021/12/30 12:37:44;;;;;;;7.32;3.70;;;;;;;;;;5024496;28;20017;-37
2021/12/30 12:40:17;;;;;;;8.50;3.85;;;;;;;;;;5028209;28;20105;-38
2021/12/30 12:42:49;;;;;;;5.55;4.00;;;;;;;;;;5034211;28;20480;-38
2021/12/30 12:45:19;;;;;;;5.95;3.50;;;;;;;;;;5022824;28;20030;-37
2021/12/30 12:47:46;;;;;;;4.75;3.78;;;;;;;;;;5029325;28;20026;-38
2021/12/30 12:50:12;;;;;;;6.72;4.82;;;;;;;;;;5005280;28;20117;-36
2021/12/30 12:52:42;;;;;;;8.05;4.38;;;;;;;;;;5027975;28;20034;-37
2021/12/30 12:55:08;;;;;;;6.03;4.50;;;;;;;;;;5022029;28;20370;-36
2021/12/30 12:57:34;;;;;;;6.18;3.55;;;;;;;;;;5023097;28;20107;-37
2021/12/30 13:00:00;;;;;;;4.32;3.80;;;;;;;;;;5005628;28;20048;-38
2021/12/30 13:02:26;;;;;;;5.13;4.03;;;;;;;;;;5015570;28;20030;-37
2021/12/30 13:04:52;;;;;;;5.53;4.38;;;;;;;;;;5015810;28;20544;-37
2021/12/30 13:07:21;;;;;;;6.32;4.65;;;;;;;;;;5024561;28;20065;-36
2021/12/30 13:09:48;;;;;;;5.68;4.32;;;;;;;;;;5017216;28;20115;-37
2021/12/30 13:12:15;;;;;;;5.60;4.70;;;;;;;;;;5020780;28;20060;-37
2021/12/30 13:14:43;;;;;;;7.53;4.40;;;;;;;;;;5019334;28;20060;-38
2021/12/30 13:17:11;;;;;;;6.95;4.45;;;;;;;;;;5023137;28;20033;-37
2021/12/30 13:19:41;;;;;;;5.20;4.38;;;;;;;;;;5019053;28;21633;-39
2021/12/30 13:22:11;;;;;;;7.50;5.40;;;;;;;;;;5018392;28;20014;-38
2021/12/30 13:24:43;;;;;;;6.05;5.30;;;;;;;;;;5024898;28;20053;-38
2021/12/30 13:27:15;;;;;;;7.45;5.60;;;;;;;;;;5005121;28;20033;-38
2021/12/30 13:29:47;;;;;;;7.82;5.03;;;;;;;;;;5028603;28;20076;-38
2021/12/30 13:32:15;;;;;;;7.32;5.20;;;;;;;;;;5016621;28;20118;-37
2021/12/30 13:34:53;;;;;;;6.57;5.20;;;;;;;;;;5019975;28;20040;-38
2021/12/30 13:37:20;;;;;;;8.40;5.65;;;;;;;;;;5022199;28;20280;-39
2021/12/30 13:39:46;;;;;;;7.80;5.95;;;;;;;;;;5014289;28;20353;-37
2021/12/30 13:42:14;;;;;;;6.40;5.60;;;;;;;;;;5016158;28;20022;-37
2021/12/30 13:44:41;;;;;;;6.90;6.20;;;;;;;;;;5020995;28;20059;-37
2021/12/30 13:47:39;;;;;;;9.40;6.95;;;;;;;;;;5015763;28;20021;-36
2021/12/30 13:50:11;;;;;;;8.88;7.22;;;;;;;;;;5017964;28;20060;-37
2021/12/30 13:52:38;;;;;;;9.25;7.82;;;;;;;;;;5018719;28;20069;-36
2021/12/30 13:55:19;;;;;;;7.80;7.00;;;;;;;;;;5021049;28;20017;-38
2021/12/30 13:57:57;;;;;;;9.13;7.68;;;;;;;;;;5022343;28;20026;-36
2021/12/30 14:00:23;;;;;;;10.88;8.95;;;;;;;;;;5016640;28;20029;-37
2021/12/30 14:02:59;;;;;;;11.00;8.32;;;;;;;;;;5013851;28;20040;-37
2021/12/30 14:05:25;;;;;;;16.65;8.50;;;;;;;;;;5020855;28;20088;-36
2021/12/30 14:07:52;;;;;;;10.55;8.65;;;;;;;;;;5021389;28;20029;-37
2021/12/30 14:10:18;;;;;;;9.93;8.25;;;;;;;;;;5020076;28;20520;-37
2021/12/30 14:13:00;;;;;;;12.50;8.73;;;;;;;;;;5017739;28;20057;-40
2021/12/30 14:15:31;;;;;;;11.25;8.68;;;;;;;;;;5014071;28;20021;-37
2021/12/30 14:18:01;;;;;;;13.95;8.02;;;;;;;;;;5020360;28;20103;-36
2021/12/30 14:20:28;;;;;;;11.65;9.45;;;;;;;;;;5019849;28;20030;-37